Time;durP1;ratioP1;P1;durP2;ratioP2;P2;SDS_P1;SDS_P2;PMS_P1;PMS_P2;Temp;Humidity;BMP_temperature;BMP_pressure;BME280_temperature;BME280_humidity;BME280_pressure;Samples;Min_cycle;Max_cycle;Signal;HPM_P1;HPM_P2
2022/08/27 01:04:15;;;;;;;14.88;9.88;;;;;;;20.64;100.00;99259.69;5002069;22;20138;-84
2022/08/27 01:06:41;;;;;;;15.88;9.55;;;;;;;20.70;100.00;99257.59;4969033;28;20134;-84
2022/08/27 01:09:09;;;;;;;16.27;9.77;;;;;;;20.72;100.00;99266.28;4960497;28;20170;-84
2022/08/27 01:11:36;;;;;;;14.48;8.90;;;;;;;20.71;100.00;99259.88;4966581;28;20043;-83
2022/08/27 01:14:02;;;;;;;12.75;9.23;;;;;;;20.70;100.00;99263.22;4954176;28;20040;-84
2022/08/27 01:16:33;;;;;;;14.98;9.93;;;;;;;20.64;100.00;99268.13;4964594;28;20090;-84
2022/08/27 01:18:59;;;;;;;14.50;8.85;;;;;;;20.61;100.00;99269.97;4950922;28;20097;-84
2022/08/27 01:24:05;;;;;;;18.25;9.88;;;;;;;20.68;100.00;99265.78;4981620;28;20502;-81
2022/08/27 01:26:31;;;;;;;13.23;8.80;;;;;;;20.63;100.00;99260.97;4975230;28;20039;-80
2022/08/27 01:28:57;;;;;;;17.92;10.52;;;;;;;20.61;100.00;99277.63;4995172;28;20049;-80
2022/08/27 01:31:22;;;;;;;12.73;8.98;;;;;;;20.62;100.00;99262.28;4990006;28;20042;-80
2022/08/27 01:33:58;;;;;;;17.70;9.55;;;;;;;20.61;100.00;99269.97;4990405;28;20470;-81
2022/08/27 01:36:23;;;;;;;16.02;9.43;;;;;;;20.58;100.00;99273.81;4985964;28;20038;-79
2022/08/27 01:38:49;;;;;;;14.02;9.15;;;;;;;20.62;100.00;99273.53;4988363;28;20446;-82
2022/08/27 01:41:15;;;;;;;14.48;9.25;;;;;;;20.56;100.00;99273.56;4979977;28;20053;-80
2022/08/27 01:43:40;;;;;;;17.88;9.82;;;;;;;20.54;100.00;99273.34;4988831;28;20050;-80
2022/08/27 01:46:06;;;;;;;17.65;9.68;;;;;;;20.54;100.00;99283.84;4989335;28;20039;-79
2022/08/27 01:48:31;;;;;;;15.32;8.82;;;;;;;20.55;100.00;99268.44;4987789;28;20046;-80
2022/08/27 01:50:57;;;;;;;17.45;9.38;;;;;;;20.54;100.00;99281.03;4983495;28;20042;-80
2022/08/27 01:53:24;;;;;;;13.20;8.80;;;;;;;20.53;100.00;99285.13;4986629;28;20412;-81
2022/08/27 01:55:51;;;;;;;13.75;8.68;;;;;;;20.53;100.00;99282.31;4988367;28;20066;-80
2022/08/27 01:58:19;;;;;;;14.25;9.18;;;;;;;20.53;100.00;99273.88;4989195;28;20034;-81
2022/08/27 02:00:48;;;;;;;13.43;8.88;;;;;;;20.56;100.00;99278.44;4969880;28;20069;-80
2022/08/27 02:03:17;;;;;;;16.90;9.32;;;;;;;20.44;100.00;99267.25;4957828;28;20486;-78
2022/08/27 02:05:44;;;;;;;13.27;8.85;;;;;;;20.48;100.00;99273.38;4965125;28;20036;-80
2022/08/27 02:08:10;;;;;;;12.98;8.68;;;;;;;20.51;100.00;99282.06;4968619;28;20414;-80
2022/08/27 02:10:38;;;;;;;15.60;9.80;;;;;;;20.44;100.00;99284.16;4969450;28;20091;-80
2022/08/27 02:13:05;;;;;;;17.85;9.40;;;;;;;20.50;100.00;99277.72;5005187;23;20529;-80
2022/08/27 02:15:33;;;;;;;18.15;9.02;;;;;;;20.50;100.00;99272.09;4999877;28;20487;-80
2022/08/27 02:17:59;;;;;;;20.30;9.63;;;;;;;20.51;100.00;99284.88;5004506;28;20037;-80
2022/08/27 02:20:25;;;;;;;17.40;9.40;;;;;;;20.51;100.00;99274.38;5013067;28;20049;-80
2022/08/27 02:22:50;;;;;;;14.50;9.05;;;;;;;20.44;100.00;99275.72;5022305;28;20383;-80
2022/08/27 02:25:18;;;;;;;17.40;9.77;;;;;;;20.46;100.00;99280.84;5024983;28;20138;-80
2022/08/27 02:27:45;;;;;;;15.25;8.90;;;;;;;20.46;100.00;99278.03;5007936;28;20045;-80
2022/08/27 02:30:13;;;;;;;14.18;8.65;;;;;;;20.46;100.00;99284.41;5024015;28;20045;-80
2022/08/27 02:32:39;;;;;;;14.40;9.27;;;;;;;20.45;100.00;99284.94;5005694;28;20037;-96
2022/08/27 02:35:05;;;;;;;14.90;9.50;;;;;;;20.42;100.00;99288.81;5001075;28;20048;-95
2022/08/27 02:37:31;;;;;;;14.85;9.45;;;;;;;20.39;100.00;99284.97;5027463;28;20095;-95
2022/08/27 02:39:57;;;;;;;13.55;8.77;;;;;;;20.36;100.00;99283.19;4999739;28;20033;-94
2022/08/27 02:42:22;;;;;;;17.23;9.48;;;;;;;20.38;100.00;99280.59;5002877;28;20042;-95
2022/08/27 02:44:48;;;;;;;12.52;9.23;;;;;;;20.38;100.00;99277.78;5018643;28;20066;-96
2022/08/27 02:47:15;;;;;;;14.13;8.75;;;;;;;20.38;100.00;99286.25;5022550;28;20049;-79
2022/08/27 02:49:41;;;;;;;14.25;8.88;;;;;;;20.37;100.00;99281.91;5009827;28;20569;-94
2022/08/27 02:52:07;;;;;;;15.40;9.65;;;;;;;20.36;100.00;99277.56;5011326;28;20407;-94
2022/08/27 02:54:33;;;;;;;17.52;8.95;;;;;;;20.39;100.00;99279.31;5022321;28;20053;-94
2022/08/27 02:56:58;;;;;;;18.45;9.85;;;;;;;20.47;100.00;99279.53;5018453;28;20061;-94
2022/08/27 02:59:24;;;;;;;20.48;10.52;;;;;;;20.61;100.00;99277.63;5025775;28;20048;-93
2022/08/27 03:01:50;;;;;;;12.90;8.60;;;;;;;20.67;100.00;99284.75;5012984;28;20036;-93
2022/08/27 03:04:17;;;;;;;20.27;9.73;;;;;;;20.69;100.00;99273.72;5029090;28;20505;-94
2022/08/27 03:06:43;;;;;;;19.67;9.18;;;;;;;20.75;100.00;99291.34;5025720;28;20179;-95
2022/08/27 03:09:09;;;;;;;19.02;9.30;;;;;;;20.85;100.00;99280.50;5028957;28;20494;-79
2022/08/27 03:11:35;;;;;;;17.63;9.18;;;;;;;20.92;100.00;99291.22;5027482;28;20053;-80
2022/08/27 03:14:00;;;;;;;18.77;9.23;;;;;;;20.93;100.00;99287.88;5008898;28;20087;-80
2022/08/27 03:16:26;;;;;;;18.65;9.88;;;;;;;21.01;100.00;99293.69;5027269;28;20529;-80
2022/08/27 03:18:51;;;;;;;21.60;9.95;;;;;;;21.04;100.00;99298.28;5027551;28;20056;-80
2022/08/27 03:21:20;;;;;;;16.95;9.23;;;;;;;21.08;100.00;99297.97;5006237;28;20033;-80
2022/08/27 03:23:47;;;;;;;15.32;9.32;;;;;;;21.12;100.00;99287.19;4999529;28;20144;-80
2022/08/27 03:26:13;;;;;;;17.88;9.85;;;;;;;21.09;100.00;99294.63;5016395;28;20041;-80
2022/08/27 03:28:39;;;;;;;12.25;9.30;;;;;;;21.08;100.00;99290.28;5013946;28;20049;-95
2022/08/27 03:31:07;;;;;;;15.60;10.15;;;;;;;21.05;100.00;99288.53;5017402;28;20080;-95
2022/08/27 03:33:36;;;;;;;18.45;10.35;;;;;;;21.02;100.00;99288.81;5029277;28;20053;-95
2022/08/27 03:36:03;;;;;;;16.77;10.00;;;;;;;20.93;100.00;99292.75;5028059;28;20068;-94
2022/08/27 03:38:28;;;;;;;17.85;9.63;;;;;;;20.90;100.00;99293.81;5021972;28;20029;-94
2022/08/27 03:40:54;;;;;;;23.88;10.15;;;;;;;20.86;100.00;99284.88;5029021;28;20387;-94
2022/08/27 03:43:21;;;;;;;15.95;9.52;;;;;;;20.81;100.00;99288.50;5029678;28;20046;-96
2022/08/27 03:45:49;;;;;;;18.80;10.13;;;;;;;20.77;100.00;99296.47;5010786;28;20092;-95
2022/08/27 03:48:14;;;;;;;18.60;10.68;;;;;;;20.74;100.00;99291.88;5012601;28;20502;-79
2022/08/27 03:50:42;;;;;;;20.05;11.27;;;;;;;20.71;100.00;99288.06;5028235;28;20048;-80
2022/08/27 03:53:08;;;;;;;20.02;11.25;;;;;;;20.69;100.00;99284.22;5027469;28;20121;-80
2022/08/27 03:55:34;;;;;;;17.05;10.55;;;;;;;20.69;100.00;99278.59;5024239;28;20080;-80
2022/08/27 03:57:59;;;;;;;19.42;10.95;;;;;;;20.69;100.00;99295.50;5028624;28;20081;-80
2022/08/27 04:00:26;;;;;;;21.08;10.85;;;;;;;20.67;100.00;99292.44;5030353;28;20069;-79
2022/08/27 04:02:52;;;;;;;23.40;11.98;;;;;;;20.67;100.00;99298.06;5036515;28;20041;-80
2022/08/27 04:05:17;;;;;;;19.25;10.93;;;;;;;20.63;100.00;99289.13;5023115;28;20524;-80
2022/08/27 04:07:43;;;;;;;18.02;10.55;;;;;;;20.59;100.00;99291.47;5017596;28;20120;-96
2022/08/27 04:10:10;;;;;;;22.60;10.75;;;;;;;20.60;100.00;99293.00;5034144;28;20045;-96
2022/08/27 04:12:36;;;;;;;20.88;11.00;;;;;;;20.58;100.00;99292.78;5027076;28;20033;-95
2022/08/27 04:15:03;;;;;;;15.60;11.10;;;;;;;20.60;100.00;99293.00;5033483;28;20042;-94
2022/08/27 04:17:30;;;;;;;17.75;11.27;;;;;;;20.60;100.00;99293.78;5034828;28;20045;-96
2022/08/27 04:19:56;;;;;;;20.83;11.50;;;;;;;20.62;100.00;99296.09;5016285;28;20053;-94
2022/08/27 04:22:22;;;;;;;24.15;12.00;;;;;;;20.61;100.00;99286.84;5022447;28;20035;-95
2022/08/27 04:24:48;;;;;;;19.58;11.90;;;;;;;20.63;100.00;99287.09;5033404;28;20505;-80
2022/08/27 04:27:15;;;;;;;21.15;11.70;;;;;;;20.62;100.00;99285.59;5032235;28;20044;-80
2022/08/27 04:29:40;;;;;;;20.90;11.50;;;;;;;20.65;100.00;99284.53;5031073;28;20045;-80
2022/08/27 04:32:06;;;;;;;24.85;12.68;;;;;;;20.69;100.00;99284.22;5014038;28;20071;-80
2022/08/27 04:34:32;;;;;;;18.30;11.80;;;;;;;20.71;100.00;99276.00;5014800;28;20040;-80
2022/08/27 04:36:58;;;;;;;22.23;13.07;;;;;;;20.71;100.00;99281.66;5029441;28;20045;-80
2022/08/27 04:39:26;;;;;;;19.63;11.20;;;;;;;20.73;100.00;99290.34;5029534;28;20041;-80
2022/08/27 04:41:54;;;;;;;22.13;11.93;;;;;;;20.77;100.00;99296.47;5031772;28;20049;-80
2022/08/27 04:44:21;;;;;;;21.88;12.15;;;;;;;20.75;100.00;99288.53;5032470;28;20092;-95
2022/08/27 04:46:47;;;;;;;18.23;11.88;;;;;;;20.81;100.00;99299.75;5038479;28;20042;-95
2022/08/27 04:49:14;;;;;;;22.83;12.45;;;;;;;20.85;100.00;99292.56;5032822;28;20065;-95
2022/08/27 04:51:41;;;;;;;20.10;12.05;;;;;;;20.88;100.00;99290.72;5032654;28;20045;-94
2022/08/27 04:54:08;;;;;;;21.73;12.50;;;;;;;20.92;100.00;99288.38;5015360;28;20050;-94
2022/08/27 04:56:34;;;;;;;18.88;11.90;;;;;;;20.97;100.00;99289.63;5033258;28;20044;-94
2022/08/27 04:59:02;;;;;;;19.73;12.00;;;;;;;21.01;100.00;99288.06;5037314;28;20049;-94
2022/08/27 05:01:29;;;;;;;18.45;12.15;;;;;;;21.06;100.00;99289.28;5017018;28;20072;-95
2022/08/27 05:03:55;;;;;;;22.75;11.60;;;;;;;21.14;100.00;99285.41;5015418;28;20049;-80
2022/08/27 05:06:23;;;;;;;17.65;11.00;;;;;;;21.23;100.00;99287.84;5031755;28;20441;-80
2022/08/27 05:08:49;;;;;;;16.27;11.15;;;;;;;21.30;100.00;99297.81;5030446;28;20037;-80
2022/08/27 05:11:16;;;;;;;17.77;11.40;;;;;;;21.40;100.00;99291.25;5030565;28;20041;-80
2022/08/27 05:13:42;;;;;;;16.50;10.93;;;;;;;21.50;100.00;99288.09;5020303;28;20041;-80
2022/08/27 05:16:11;;;;;;;16.63;10.70;;;;;;;21.58;100.00;99294.66;5031036;28;20537;-80
2022/08/27 05:18:37;;;;;;;15.75;10.25;;;;;;;21.68;100.00;99293.00;5014517;28;20040;-80
2022/08/27 05:21:04;;;;;;;16.70;10.32;;;;;;;21.74;100.00;99300.13;5019152;28;20049;-80
2022/08/27 05:23:30;;;;;;;16.42;10.38;;;;;;;21.84;100.00;99303.31;5017308;28;20122;-96
2022/08/27 05:25:56;;;;;;;16.98;10.75;;;;;;;21.90;100.00;99300.44;5034400;28;20486;-95
2022/08/27 05:28:23;;;;;;;13.52;10.30;;;;;;;22.00;100.00;99305.19;5031740;28;20045;-96
2022/08/27 05:30:50;;;;;;;19.23;10.75;;;;;;;22.12;100.00;99303.00;5014269;28;20053;-96
2022/08/27 05:33:18;;;;;;;14.20;10.82;;;;;;;22.17;100.00;99310.63;5027751;28;20041;-95
2022/08/27 05:35:47;;;;;;;17.15;11.27;;;;;;;22.30;100.00;99303.00;5033324;28;20037;-95
2022/08/27 05:38:13;;;;;;;15.45;9.88;;;;;;;22.39;100.00;99303.91;5030382;28;20116;-96
2022/08/27 05:40:42;;;;;;;15.93;10.55;;;;;;;22.50;100.00;99309.38;5001627;28;20129;-96
2022/08/27 05:43:09;;;;;;;14.88;10.70;;;;;;;22.63;100.00;99320.75;5029388;28;20041;-80
2022/08/27 05:45:43;;;;;;;16.77;10.65;;;;;;;22.71;100.00;99325.28;5029373;28;20029;-80
2022/08/27 05:48:10;;;;;;;15.82;10.25;;;;;;;22.79;100.00;99319.75;5030379;28;20498;-80
2022/08/27 05:50:37;;;;;;;16.67;11.05;;;;;;;22.83;100.00;99325.88;5030163;28;20053;-80
2022/08/27 05:53:03;;;;;;;16.92;10.80;;;;;;;22.83;100.00;99320.22;5028502;28;20045;-80
2022/08/27 05:55:29;;;;;;;16.52;10.05;;;;;;;22.98;100.00;99331.00;5013647;28;20111;-80
2022/08/27 05:57:54;;;;;;;15.82;9.60;;;;;;;23.18;100.00;99321.91;5028930;28;20045;-80
2022/08/27 06:03:04;;;;;;;19.45;10.70;;;;;;;23.26;100.00;99328.47;5031332;28;20048;-96
2022/08/27 06:05:30;;;;;;;16.55;10.43;;;;;;;23.28;100.00;99325.09;5030392;28;20049;-95
2022/08/27 06:07:55;;;;;;;13.38;9.50;;;;;;;23.40;100.00;99332.84;5030057;28;20132;-95
2022/08/27 06:10:21;;;;;;;15.98;9.32;;;;;;;23.62;100.00;99332.44;5037565;28;20084;-95
2022/08/27 06:12:47;;;;;;;16.05;9.80;;;;;;;23.79;99.17;99334.94;5036400;28;20046;-95
2022/08/27 06:15:12;;;;;;;15.60;9.38;;;;;;;23.85;96.85;99335.63;5037462;28;20046;-96
2022/08/27 06:17:38;;;;;;;15.13;10.20;;;;;;;23.97;97.44;99338.97;5031251;28;20021;-94
2022/08/27 06:20:04;;;;;;;13.80;9.35;;;;;;;24.12;97.20;99342.75;5029079;28;20080;-80
2022/08/27 06:22:29;;;;;;;17.25;9.85;;;;;;;24.33;94.68;99334.34;5029678;28;20113;-80
2022/08/27 06:24:54;;;;;;;16.90;9.98;;;;;;;24.33;93.60;99345.69;5030077;28;20403;-80
2022/08/27 06:27:20;;;;;;;15.27;8.80;;;;;;;24.52;92.80;99343.44;5029043;28;20117;-80
2022/08/27 06:29:46;;;;;;;15.30;9.55;;;;;;;24.57;92.92;99339.72;5013515;28;20034;-80
2022/08/27 06:32:12;;;;;;;14.02;9.15;;;;;;;24.67;93.30;99337.16;5027972;28;20127;-80
2022/08/27 06:34:38;;;;;;;14.80;9.32;;;;;;;24.81;91.51;99341.50;5029592;28;20073;-80
2022/08/27 06:37:04;;;;;;;13.20;9.43;;;;;;;24.99;89.86;99334.88;5014873;28;20047;-80
2022/08/27 06:39:30;;;;;;;13.43;9.30;;;;;;;25.11;88.90;99337.44;5029431;28;20033;-96
2022/08/27 06:41:56;;;;;;;18.02;9.50;;;;;;;25.07;90.16;99349.88;5022901;28;20076;-96
2022/08/27 06:44:23;;;;;;;14.90;8.90;;;;;;;25.15;87.73;99347.13;5033716;28;20051;-96
2022/08/27 06:46:49;;;;;;;12.43;8.57;;;;;;;25.28;88.12;99340.59;5032867;28;20040;-96
2022/08/27 06:49:15;;;;;;;16.40;9.38;;;;;;;25.38;87.66;99347.31;5041957;28;20109;-96
2022/08/27 06:51:44;;;;;;;12.40;9.18;;;;;;;25.03;88.09;99338.13;5042730;28;20045;-96
2022/08/27 06:54:11;;;;;;;15.55;8.93;;;;;;;25.18;88.77;99345.25;4996629;28;20072;-95
2022/08/27 06:56:36;;;;;;;14.02;9.00;;;;;;;25.50;87.40;99351.38;5016463;28;20124;-94
2022/08/27 06:59:06;;;;;;;14.18;9.07;;;;;;;25.68;85.89;99352.47;5028122;28;20196;-80
2022/08/27 07:01:38;;;;;;;12.90;8.98;;;;;;;25.68;85.77;99358.91;5027025;28;20042;-81
2022/08/27 07:04:10;;;;;;;14.68;8.57;;;;;;;25.53;86.60;99356.72;5004041;28;20221;-80
2022/08/27 07:06:36;;;;;;;17.02;9.15;;;;;;;25.70;85.55;99356.28;5012137;28;20061;-80
2022/08/27 07:09:02;;;;;;;16.15;8.75;;;;;;;25.69;85.08;99348.31;5028441;28;20049;-80
2022/08/27 07:11:30;;;;;;;13.23;8.25;;;;;;;25.82;84.68;99360.34;5029378;28;20034;-80
2022/08/27 07:13:56;;;;;;;16.30;8.95;;;;;;;26.09;84.47;99355.16;5011953;28;20050;-80
2022/08/27 07:16:26;;;;;;;13.30;8.50;;;;;;;26.20;83.13;99368.34;5029524;28;20072;-80
2022/08/27 07:18:53;;;;;;;12.13;8.20;;;;;;;26.39;81.59;99369.56;5032484;28;20042;-96
2022/08/27 07:21:19;;;;;;;12.13;8.55;;;;;;;26.26;82.86;99360.38;5009762;28;20033;-96
2022/08/27 07:23:45;;;;;;;15.35;8.60;;;;;;;26.34;82.08;99366.88;5014146;28;20057;-96
2022/08/27 07:26:12;;;;;;;12.52;8.40;;;;;;;26.48;80.85;99365.41;5004280;28;20494;-96
2022/08/27 07:28:41;;;;;;;14.90;9.13;;;;;;;26.60;80.39;99374.38;5015474;28;20588;-96
2022/08/27 07:31:09;;;;;;;14.45;8.90;;;;;;;26.62;80.24;99363.94;5034628;28;20052;-96
2022/08/27 07:33:36;;;;;;;13.48;8.02;;;;;;;26.70;79.37;99364.72;4986554;28;20038;-95
2022/08/27 07:36:02;;;;;;;14.52;8.52;;;;;;;26.52;79.97;99365.81;5022732;28;20157;-81
2022/08/27 07:38:28;;;;;;;11.98;8.93;;;;;;;26.61;79.68;99373.78;5009986;28;20057;-80
2022/08/27 07:40:53;;;;;;;11.05;8.18;;;;;;;26.84;79.50;99368.97;5015952;28;20495;-81
2022/08/27 07:46:04;;;;;;;17.20;8.30;;;;;;;27.09;77.72;99377.72;4999760;28;20038;-89
2022/08/27 07:48:32;;;;;;;14.57;8.90;;;;;;;27.20;77.76;99380.19;5031838;28;20057;-89
2022/08/27 07:50:58;;;;;;;11.13;8.27;;;;;;;27.19;77.30;99392.16;4991035;28;20047;-86
2022/08/27 07:53:24;;;;;;;12.13;8.48;;;;;;;27.04;78.22;99386.44;5011507;28;20037;-81
2022/08/27 08:17:17;;;;;;;12.65;8.70;;;;;;;28.09;71.70;99402.78;5010201;28;20120;-80
2022/08/27 08:19:43;;;;;;;13.85;8.90;;;;;;;28.21;71.22;99403.13;5011042;28;20499;-81
2022/08/27 08:22:08;;;;;;;13.48;8.13;;;;;;;28.21;71.17;99400.28;5010388;28;20104;-80
2022/08/27 08:24:35;;;;;;;14.88;7.40;;;;;;;28.36;71.02;99396.59;5011172;28;20419;-80
2022/08/27 08:27:00;;;;;;;13.88;7.93;;;;;;;28.33;70.19;99401.38;5014826;28;20542;-80
2022/08/27 08:29:26;;;;;;;12.52;7.82;;;;;;;28.49;69.63;99399.22;4993688;28;20038;-81
2022/08/27 08:31:51;;;;;;;13.52;7.65;;;;;;;28.33;70.45;99400.59;5010030;28;20046;-80
2022/08/27 08:34:18;;;;;;;13.48;7.75;;;;;;;28.51;68.98;99396.56;5015735;28;20046;-96
2022/08/27 08:36:44;;;;;;;10.90;7.53;;;;;;;28.96;67.70;99398.41;5003991;28;20121;-94
2022/08/27 08:39:10;;;;;;;12.98;7.88;;;;;;;28.96;66.47;99395.56;5023754;28;20469;-95
2022/08/27 08:41:38;;;;;;;13.73;8.27;;;;;;;28.69;67.80;99396.09;5010336;28;20038;-96
2022/08/27 08:44:39;;;;;;;15.38;7.55;;;;;;;28.71;67.44;99395.53;5022658;28;20037;-96
2022/08/27 08:47:14;;;;;;;15.32;8.00;;;;;;;28.84;66.38;99394.50;5018442;28;20117;-96
2022/08/27 08:49:58;;;;;;;19.52;8.32;;;;;;;29.06;65.56;99399.31;5030606;28;20046;-96
2022/08/27 08:52:28;;;;;;;9.43;7.00;;;;;;;28.97;66.01;99399.94;5025675;28;20096;-80
2022/08/27 08:55:17;;;;;;;12.27;7.18;;;;;;;29.00;67.00;99407.34;5007760;28;20483;-80
2022/08/27 08:58:05;;;;;;;15.50;8.10;;;;;;;28.86;66.80;99400.38;5010569;28;20465;-81
2022/08/27 09:00:31;;;;;;;17.20;8.07;;;;;;;28.67;67.04;99398.72;5010870;28;20117;-80
2022/08/27 09:02:56;;;;;;;15.75;7.93;;;;;;;28.84;67.91;99389.53;4986661;28;20575;-80
2022/08/27 09:05:24;;;;;;;14.90;7.60;;;;;;;29.22;68.08;99395.00;4994371;28;20549;-81
2022/08/27 09:08:33;;;;;;;13.63;7.15;;;;;;;29.77;65.67;99408.28;4994354;28;20045;-80
2022/08/27 09:11:07;;;;;;;12.00;7.85;;;;;;;29.84;63.64;99410.34;4951577;28;20051;-96
2022/08/27 09:13:48;;;;;;;26.55;7.68;;;;;;;30.06;62.37;99409.34;4966496;28;20047;-96
2022/08/27 09:16:14;;;;;;;14.88;7.53;;;;;;;30.05;62.32;99404.97;4979803;23;20050;-85
2022/08/27 09:18:40;;;;;;;13.15;6.97;;;;;;;29.83;62.71;99411.66;5019035;23;20328;-81
2022/08/27 09:21:33;;;;;;;16.38;7.47;;;;;;;29.67;63.34;99411.06;4983666;28;20054;-81
2022/08/27 09:24:27;;;;;;;13.73;7.30;;;;;;;30.01;62.46;99408.25;4943067;28;20050;-81
2022/08/27 09:26:53;;;;;;;16.08;7.20;;;;;;;30.17;60.82;99405.25;4974991;28;20046;-81
2022/08/27 09:29:19;;;;;;;15.93;7.10;;;;;;;30.19;60.26;99409.03;4982595;28;20046;-81
2022/08/27 09:31:55;;;;;;;9.60;6.90;;;;;;;30.32;60.35;99405.84;4990657;28;20504;-82
2022/08/27 09:34:21;;;;;;;12.15;6.80;;;;;;;30.43;60.82;99410.28;4969191;28;20498;-81
2022/08/27 09:36:58;;;;;;;16.00;7.15;;;;;;;30.81;61.48;99404.09;4986790;28;20030;-82
2022/08/27 09:39:28;;;;;;;12.88;7.20;;;;;;;30.90;59.09;99406.25;4989486;28;20042;-81
2022/08/27 09:41:54;;;;;;;11.35;7.72;;;;;;;30.86;59.70;99408.78;4951791;28;20038;-82
2022/08/27 09:44:21;;;;;;;13.63;6.40;;;;;;;30.88;58.17;99409.72;4979046;28;20173;-82
2022/08/27 09:46:59;;;;;;;13.80;6.55;;;;;;;31.39;57.29;99399.41;4966956;28;20463;-83
2022/08/27 09:49:25;;;;;;;10.82;6.47;;;;;;;31.16;56.74;99402.66;4987733;28;20465;-81
2022/08/27 09:51:52;;;;;;;16.35;6.97;;;;;;;31.34;54.96;99386.88;4984962;28;21484;-82
2022/08/27 09:54:26;;;;;;;14.65;7.57;;;;;;;31.56;55.81;99381.41;4982431;28;20137;-83
2022/08/27 09:56:52;;;;;;;12.45;7.35;;;;;;;31.80;54.71;99392.63;4988068;28;20047;-83
2022/08/27 09:59:27;;;;;;;13.45;7.35;;;;;;;31.84;54.68;99386.44;4988811;28;20040;-83
2022/08/27 10:02:03;;;;;;;14.88;7.43;;;;;;;32.04;54.96;99384.34;4971898;28;20090;-83
2022/08/27 10:04:42;;;;;;;15.95;8.05;;;;;;;32.25;54.30;99385.28;4980098;28;20044;-83
2022/08/27 10:07:42;;;;;;;16.10;7.60;;;;;;;32.22;53.40;99380.78;4979016;28;20442;-83
2022/08/27 10:10:16;;;;;;;17.20;7.15;;;;;;;32.17;53.28;99390.44;4977555;28;20057;-83
2022/08/27 10:12:55;;;;;;;12.18;6.93;;;;;;;32.30;53.84;99387.09;4944951;28;20647;-83
2022/08/27 10:15:22;;;;;;;11.60;6.63;;;;;;;32.44;52.61;99384.50;4967712;28;20510;-83
2022/08/27 10:17:50;;;;;;;16.27;7.10;;;;;;;32.37;51.38;99383.31;4967480;28;20154;-83
2022/08/27 10:20:32;;;;;;;13.57;6.65;;;;;;;32.36;51.35;99383.91;4983714;28;20441;-85
2022/08/27 10:23:09;;;;;;;15.10;6.90;;;;;;;32.36;51.41;99384.69;4975812;28;20405;-84
2022/08/27 10:26:03;;;;;;;13.68;7.00;;;;;;;32.06;51.16;99379.53;4964049;28;20050;-82
2022/08/27 10:28:38;;;;;;;15.90;7.35;;;;;;;32.25;53.33;99379.56;4948571;28;20050;-83
2022/08/27 10:31:32;;;;;;;13.85;7.43;;;;;;;32.44;52.26;99383.75;4977957;28;20069;-83
2022/08/27 10:34:13;;;;;;;13.18;6.90;;;;;;;32.71;50.36;99379.38;4964771;28;20038;-83
2022/08/27 10:36:45;;;;;;;15.23;6.60;;;;;;;32.68;49.17;99376.94;4964752;28;20030;-82
2022/08/27 10:39:35;;;;;;;16.07;7.23;;;;;;;32.71;49.07;99379.38;4979146;28;20470;-82
2022/08/27 10:42:14;;;;;;;18.50;7.10;;;;;;;32.77;47.87;99364.69;4971652;28;20306;-83
2022/08/27 10:44:57;;;;;;;13.68;7.10;;;;;;;32.35;49.16;99368.06;4966164;28;20425;-82
2022/08/27 10:47:42;;;;;;;17.42;7.30;;;;;;;32.39;48.75;99360.50;4981797;28;20561;-83
2022/08/27 10:50:27;;;;;;;16.27;6.68;;;;;;;32.50;49.53;99361.25;4985823;28;20047;-83
2022/08/27 10:53:01;;;;;;;11.90;6.35;;;;;;;32.99;46.01;99362.66;4957170;28;20051;-83
2022/08/27 10:55:33;;;;;;;14.23;6.55;;;;;;;33.19;46.55;99358.38;4961082;28;20122;-83
2022/08/27 10:58:21;;;;;;;15.88;6.55;;;;;;;33.24;46.65;99355.16;4984569;28;20108;-81
2022/08/27 11:00:55;;;;;;;14.98;6.38;;;;;;;33.28;46.50;99361.19;4984355;28;20573;-83
2022/08/27 11:03:38;;;;;;;12.98;6.43;;;;;;;33.59;46.12;99354.69;4973787;28;20269;-83
2022/08/27 11:06:25;;;;;;;16.25;6.28;;;;;;;33.72;43.39;99354.19;4975369;28;20078;-83
2022/08/27 11:08:58;;;;;;;11.15;6.20;;;;;;;33.55;43.53;99354.41;4970167;28;20042;-83
2022/08/27 11:11:39;;;;;;;15.45;6.45;;;;;;;33.34;43.40;99345.75;4984889;28;20577;-83
2022/08/27 11:14:08;;;;;;;14.20;6.05;;;;;;;33.36;43.49;99345.91;4976215;28;20162;-83
2022/08/27 11:16:42;;;;;;;14.38;6.07;;;;;;;33.74;43.44;99337.03;4941213;28;20037;-83
2022/08/27 11:19:29;;;;;;;13.45;6.72;;;;;;;33.56;46.01;99348.06;5004739;28;20057;-83
2022/08/27 11:22:07;;;;;;;12.18;7.20;;;;;;;33.63;44.43;99343.47;4981779;28;20082;-83
2022/08/27 11:24:53;;;;;;;12.63;6.07;;;;;;;33.94;45.05;99343.41;4997863;28;20077;-83
2022/08/27 11:27:23;;;;;;;16.42;6.40;;;;;;;33.97;44.05;99340.03;4998987;28;20105;-82
2022/08/27 11:30:14;;;;;;;15.70;6.85;;;;;;;34.35;41.82;99329.59;4984074;28;20501;-82
2022/08/27 11:32:54;;;;;;;12.18;6.28;;;;;;;34.48;41.76;99321.13;4969191;28;20042;-82
2022/08/27 11:35:58;;;;;;;14.52;6.65;;;;;;;34.47;41.52;99333.25;4997877;28;20069;-82
2022/08/27 11:38:47;;;;;;;15.85;6.25;;;;;;;34.60;42.52;99333.44;4984525;28;20042;-82
2022/08/27 11:41:37;;;;;;;16.80;5.95;;;;;;;34.24;40.60;99330.31;5000879;28;20129;-82
2022/08/27 11:44:03;;;;;;;15.52;6.78;;;;;;;34.27;43.25;99320.44;4996861;28;20096;-82
2022/08/27 11:46:41;;;;;;;15.50;6.60;;;;;;;34.48;42.53;99326.13;4988324;28;20041;-82
2022/08/27 11:49:06;;;;;;;17.42;6.53;;;;;;;34.28;42.37;99319.81;4997698;28;20612;-82
2022/08/27 11:51:38;;;;;;;13.63;6.28;;;;;;;34.63;42.98;99322.78;4982798;28;20030;-82
2022/08/27 11:54:09;;;;;;;17.67;6.35;;;;;;;34.34;41.66;99316.56;4984564;28;20062;-82
2022/08/27 11:56:40;;;;;;;13.95;6.35;;;;;;;34.64;41.23;99319.31;4994486;28;20494;-82
2022/08/27 11:59:20;;;;;;;18.77;6.50;;;;;;;34.88;40.35;99316.47;4996686;28;20057;-82
2022/08/27 12:01:46;;;;;;;14.55;6.28;;;;;;;34.06;41.93;99316.19;5004910;28;20050;-82
2022/08/27 12:04:41;;;;;;;13.70;6.72;;;;;;;34.36;42.33;99314.59;4994755;28;20081;-84
2022/08/27 12:07:12;;;;;;;11.68;6.20;;;;;;;34.55;44.82;99313.63;4969695;28;20418;-82
2022/08/27 12:10:02;;;;;;;15.60;6.83;;;;;;;34.64;42.87;99307.00;5003053;28;20426;-82
2022/08/27 12:12:53;;;;;;;12.70;7.15;;;;;;;34.78;42.88;99305.03;4985955;28;20050;-82
2022/08/27 12:15:24;;;;;;;17.17;6.72;;;;;;;34.95;43.44;99307.56;4987921;28;20117;-83
2022/08/27 12:18:16;;;;;;;14.77;5.88;;;;;;;34.93;40.33;99310.34;5005251;28;20560;-83
2022/08/27 12:20:54;;;;;;;11.60;6.38;;;;;;;34.78;40.71;99307.19;4979583;28;20580;-83
2022/08/27 12:23:49;;;;;;;17.45;7.03;;;;;;;34.63;41.51;99303.38;4970573;28;20097;-83
2022/08/27 12:26:24;;;;;;;12.45;6.90;;;;;;;34.88;42.28;99294.16;4968710;28;20093;-82
2022/08/27 12:28:52;;;;;;;15.50;7.05;;;;;;;35.06;42.00;99297.44;4981318;28;20049;-83
2022/08/27 12:31:20;;;;;;;18.52;7.30;;;;;;;34.88;41.49;99299.94;4983032;28;20085;-82
2022/08/27 12:33:52;;;;;;;12.40;6.65;;;;;;;34.61;41.92;99290.97;4970534;28;20038;-82
2022/08/27 12:36:25;;;;;;;14.13;6.65;;;;;;;34.43;43.93;99295.56;4992768;28;20112;-81
2022/08/27 12:38:54;;;;;;;15.23;6.97;;;;;;;34.43;41.68;99295.56;4976115;28;20054;-81
2022/08/27 12:41:27;;;;;;;17.73;6.88;;;;;;;34.60;42.09;99292.34;4990547;28;20037;-82
2022/08/27 12:44:11;;;;;;;14.70;6.20;;;;;;;34.60;42.59;99289.47;4996619;28;20046;-81
2022/08/27 12:46:46;;;;;;;15.75;7.22;;;;;;;34.66;41.80;99289.16;5000596;28;20461;-82
2022/08/27 12:49:16;;;;;;;17.55;7.10;;;;;;;34.71;41.67;99290.88;4999614;28;20038;-82
2022/08/27 12:51:44;;;;;;;21.58;7.25;;;;;;;34.48;41.08;99286.56;4975155;28;20077;-81
2022/08/27 12:54:17;;;;;;;13.60;7.18;;;;;;;34.62;40.99;99289.59;4990180;28;20120;-82
2022/08/27 12:56:46;;;;;;;14.63;6.53;;;;;;;34.50;42.59;99288.81;4980613;28;20049;-82
2022/08/27 12:59:41;;;;;;;12.23;6.43;;;;;;;34.67;41.61;99285.63;4999157;28;20031;-82
2022/08/27 13:02:09;;;;;;;16.25;6.53;;;;;;;34.81;41.54;99288.66;4991912;28;20422;-82
2022/08/27 13:04:38;;;;;;;15.27;6.00;;;;;;;34.92;40.47;99288.66;4996897;28;20494;-83
2022/08/27 13:07:04;;;;;;;18.33;6.55;;;;;;;34.43;40.96;99275.41;4993990;28;20090;-83